createdAt,value
2023-04-18T00:00:49.012Z,10.30
2023-04-18T00:03:17.027Z,16.60
2023-04-18T00:05:46.686Z,15.20
2023-04-18T00:08:13.882Z,14.70
2023-04-18T00:10:40.559Z,11.20
2023-04-18T00:13:06.861Z,14.00
2023-04-18T00:15:34.779Z,11.10
2023-04-18T00:18:03.232Z,14.80
2023-04-18T00:20:30.061Z,12.70
2023-04-18T00:22:56.480Z,15.80
2023-04-18T00:25:22.860Z,14.20
2023-04-18T00:27:49.124Z,12.60
2023-04-18T00:30:17.056Z,14.90
2023-04-18T00:32:43.857Z,11.50
2023-04-18T00:35:10.182Z,12.30
2023-04-18T00:37:37.734Z,15.50
2023-04-18T00:40:05.035Z,13.10
2023-04-18T00:42:31.429Z,11.50
2023-04-18T00:44:57.733Z,13.80
2023-04-18T00:47:24.535Z,13.40
2023-04-18T00:49:51.048Z,13.90
2023-04-18T00:52:18.039Z,12.70
2023-04-18T00:54:44.824Z,12.70
2023-04-18T00:57:12.359Z,14.00
2023-04-18T00:59:38.676Z,11.90
2023-04-18T01:02:07.315Z,13.80
2023-04-18T01:04:33.766Z,11.90
2023-04-18T01:07:01.562Z,7.50
2023-04-18T01:09:28.681Z,12.40
2023-04-18T01:11:55.316Z,13.50
2023-04-18T01:14:21.939Z,8.40
2023-04-18T01:16:48.262Z,11.90
2023-04-18T01:19:16.728Z,13.50
2023-04-18T01:21:43.329Z,11.30
2023-04-18T01:24:15.896Z,14.30
2023-04-18T01:26:44.616Z,11.40
2023-04-18T01:29:11.681Z,11.60
2023-04-18T01:31:39.314Z,10.60
2023-04-18T01:34:07.188Z,10.90
2023-04-18T01:36:35.296Z,11.80
2023-04-18T01:39:01.865Z,13.70
2023-04-18T01:41:31.626Z,10.20
2023-04-18T01:43:59.032Z,13.50
2023-04-18T01:46:26.324Z,10.50
2023-04-18T01:48:54.740Z,13.70
2023-04-18T01:51:21.458Z,10.90
2023-04-18T01:53:47.998Z,11.00
2023-04-18T01:56:14.334Z,12.50
2023-04-18T01:58:41.018Z,12.00
2023-04-18T02:01:07.720Z,11.60
2023-04-18T02:03:34.398Z,8.50
2023-04-18T02:06:04.703Z,10.60
2023-04-18T02:08:34.689Z,13.80
2023-04-18T02:11:04.766Z,11.10
2023-04-18T02:13:32.163Z,9.80
2023-04-18T02:15:58.551Z,11.60
2023-04-18T02:18:25.914Z,11.60
2023-04-18T02:20:52.217Z,13.60
2023-04-18T02:23:18.575Z,11.10
2023-04-18T02:25:45.099Z,13.30
2023-04-18T02:28:12.465Z,10.60
2023-04-18T02:30:38.723Z,12.30
2023-04-18T02:33:05.047Z,9.20
2023-04-18T02:35:31.430Z,11.20
2023-04-18T02:37:57.718Z,12.60
2023-04-18T02:40:24.844Z,10.70
2023-04-18T02:42:52.999Z,12.20
2023-04-18T02:45:19.341Z,10.90
2023-04-18T02:47:54.720Z,13.20
2023-04-18T02:50:23.846Z,15.20
2023-04-18T02:52:50.292Z,15.70
2023-04-18T02:55:17.070Z,12.30
2023-04-18T02:57:43.650Z,12.70
2023-04-18T03:00:40.835Z,10.50
2023-04-18T03:03:20.823Z,13.60
2023-04-18T03:05:57.133Z,12.20
2023-04-18T03:08:23.613Z,13.10
2023-04-18T03:10:49.933Z,13.70
2023-04-18T03:13:18.508Z,9.80
2023-04-18T03:15:45.824Z,13.80
2023-04-18T03:18:12.950Z,12.70
2023-04-18T03:20:40.291Z,12.70
2023-04-18T03:23:07.022Z,13.20
2023-04-18T03:25:35.082Z,15.70
2023-04-18T03:28:02.255Z,10.90
2023-04-18T03:30:28.821Z,13.40
2023-04-18T03:32:56.577Z,13.90
2023-04-18T03:35:23.507Z,8.90
2023-04-18T03:37:50.104Z,13.60
2023-04-18T03:40:28.128Z,15.50
2023-04-18T03:42:59.457Z,13.00
2023-04-18T03:45:26.237Z,13.70
2023-04-18T03:47:52.664Z,13.00
2023-04-18T03:50:19.861Z,12.20
2023-04-18T03:52:46.428Z,15.90
2023-04-18T03:55:14.629Z,14.00
2023-04-18T03:57:41.414Z,12.20
2023-04-18T04:00:11.440Z,22.50
2023-04-18T04:02:49.637Z,14.90
2023-04-18T04:05:19.141Z,14.10
2023-04-18T04:07:46.452Z,13.00
2023-04-18T04:10:12.748Z,14.80
2023-04-18T04:12:39.052Z,14.80
2023-04-18T04:15:06.465Z,12.20
2023-04-18T04:17:34.768Z,16.90
2023-04-18T04:20:01.719Z,15.40
2023-04-18T04:22:29.796Z,19.20
2023-04-18T04:24:57.036Z,15.00
2023-04-18T04:27:27.536Z,13.70
2023-04-18T04:29:55.701Z,13.60
2023-04-18T04:32:22.163Z,15.60
2023-04-18T04:34:48.783Z,16.00
2023-04-18T04:37:17.919Z,14.70
2023-04-18T04:39:55.903Z,13.20
2023-04-18T04:42:34.279Z,15.90
2023-04-18T04:45:09.100Z,12.40
2023-04-18T04:47:36.147Z,16.20
2023-04-18T04:50:03.654Z,13.50
2023-04-18T04:52:32.252Z,15.40
2023-04-18T04:54:58.842Z,12.70
2023-04-18T04:57:25.557Z,17.50
2023-04-18T04:59:52.281Z,14.40
2023-04-18T05:02:22.780Z,16.90
2023-04-18T05:04:49.249Z,11.60
2023-04-18T05:07:15.552Z,11.00
2023-04-18T05:09:41.777Z,15.60
2023-04-18T05:12:08.173Z,15.70
2023-04-18T05:14:34.829Z,16.00
2023-04-18T05:17:02.376Z,15.40
2023-04-18T05:19:28.900Z,12.60
2023-04-18T05:21:55.654Z,13.70
2023-04-18T05:24:21.991Z,14.00
2023-04-18T05:26:48.347Z,12.40
2023-04-18T05:29:14.636Z,12.80
2023-04-18T05:31:40.953Z,10.20
2023-04-18T05:34:07.303Z,11.60
2023-04-18T05:36:33.951Z,16.90
2023-04-18T05:39:00.343Z,12.40
2023-04-18T05:41:26.611Z,12.40
2023-04-18T05:44:04.314Z,15.60
2023-04-18T05:46:34.815Z,17.20
2023-04-18T05:49:01.921Z,14.70
2023-04-18T05:51:28.576Z,14.30
2023-04-18T05:53:55.025Z,15.30
2023-04-18T05:56:21.327Z,16.30
2023-04-18T05:58:48.348Z,15.30
2023-04-18T06:01:15.411Z,14.20
2023-04-18T06:03:41.920Z,14.40
2023-04-18T06:06:09.082Z,14.00
2023-04-18T06:08:35.503Z,14.20
2023-04-18T06:11:02.343Z,16.50
2023-04-18T06:13:29.030Z,14.10
2023-04-18T06:15:55.366Z,14.30
2023-04-18T06:18:21.913Z,14.30
2023-04-18T06:20:48.621Z,12.30
2023-04-18T06:23:14.999Z,15.60
2023-04-18T06:25:42.074Z,13.40
2023-04-18T06:28:08.509Z,11.60
2023-04-18T06:30:34.980Z,13.00
2023-04-18T06:33:01.337Z,12.30
2023-04-18T06:35:31.440Z,12.10
2023-04-18T06:37:57.740Z,12.60
2023-04-18T06:40:24.048Z,13.50
2023-04-18T06:42:50.869Z,15.20
2023-04-18T06:45:17.387Z,13.20
2023-04-18T06:47:43.977Z,14.10
2023-04-18T06:50:10.627Z,12.90
2023-04-18T06:52:39.899Z,14.90
2023-04-18T06:55:08.321Z,12.70
2023-04-18T06:57:35.109Z,15.20
2023-04-18T07:00:01.636Z,15.00
2023-04-18T07:02:27.944Z,14.80
2023-04-18T07:04:54.306Z,13.20
2023-04-18T07:07:20.685Z,13.60
2023-04-18T07:09:48.190Z,14.20
2023-04-18T07:12:15.428Z,14.10
2023-04-18T07:14:41.719Z,13.00
2023-04-18T07:17:08.288Z,12.60
2023-04-18T07:19:34.616Z,12.40
2023-04-18T07:22:00.851Z,13.00
2023-04-18T07:24:27.293Z,12.40
2023-04-18T07:26:55.157Z,19.30
2023-04-18T07:29:21.820Z,14.10
2023-04-18T07:31:48.613Z,12.50
2023-04-18T07:34:15.443Z,14.00
2023-04-18T07:36:42.047Z,15.40
2023-04-18T07:39:08.716Z,12.20
2023-04-18T07:41:35.017Z,11.00
2023-04-18T07:44:01.762Z,14.50
2023-04-18T07:46:28.391Z,12.60
2023-04-18T07:48:54.790Z,18.50
2023-04-18T07:51:24.770Z,19.70
2023-04-18T07:53:51.109Z,22.70
2023-04-18T07:56:18.193Z,22.50
2023-04-18T07:58:44.866Z,24.70
2023-04-18T08:01:13.359Z,54.10
2023-04-18T08:03:40.005Z,43.50
2023-04-18T08:06:06.653Z,35.70
2023-04-18T08:08:33.083Z,53.20
2023-04-18T08:10:59.353Z,36.70
2023-04-18T08:13:25.687Z,25.80
2023-04-18T08:15:51.953Z,104.20
2023-04-18T08:18:19.430Z,35.60
2023-04-18T08:20:46.094Z,47.10
2023-04-18T08:23:13.334Z,45.90
2023-04-18T08:25:40.177Z,47.80
2023-04-18T08:28:06.537Z,84.90
2023-04-18T08:30:33.240Z,107.80
2023-04-18T08:33:00.606Z,39.70
2023-04-18T08:35:27.496Z,51.20
2023-04-18T08:37:53.776Z,42.60
2023-04-18T08:40:20.682Z,33.50
2023-04-18T08:42:48.024Z,44.20
2023-04-18T08:45:17.212Z,60.70
2023-04-18T08:47:43.529Z,33.60
2023-04-18T08:50:10.774Z,53.20
2023-04-18T08:52:39.202Z,20.50
2023-04-18T08:55:06.544Z,34.50
2023-04-18T08:57:35.201Z,22.20
2023-04-18T09:00:04.856Z,50.90
2023-04-18T09:02:41.776Z,41.10
2023-04-18T09:05:11.733Z,40.80
2023-04-18T09:07:38.085Z,19.40
2023-04-18T09:10:04.921Z,29.30
2023-04-18T09:12:31.985Z,14.20
2023-04-18T09:15:15.606Z,18.40
2023-04-18T09:17:50.186Z,16.70
2023-04-18T09:20:41.607Z,15.60
2023-04-18T09:23:10.414Z,13.60
2023-04-18T09:25:45.142Z,15.30
2023-04-18T09:28:28.220Z,11.10
2023-04-18T09:31:16.793Z,15.60
2023-04-18T09:33:53.698Z,15.20
2023-04-18T09:36:21.901Z,11.90
2023-04-18T09:38:50.457Z,20.10
2023-04-18T09:41:18.493Z,18.20
2023-04-18T09:43:47.346Z,13.20
2023-04-18T09:46:16.716Z,17.20
2023-04-18T09:48:43.006Z,14.60
2023-04-18T09:51:12.635Z,14.30
2023-04-18T09:53:40.778Z,14.90
2023-04-18T09:56:13.907Z,14.70
2023-04-18T09:58:41.637Z,11.80
2023-04-18T10:01:08.271Z,11.80
2023-04-18T10:03:43.605Z,34.00
2023-04-18T10:06:11.189Z,22.40
2023-04-18T10:08:39.142Z,23.80
2023-04-18T10:11:05.545Z,15.70
2023-04-18T10:13:35.368Z,29.20
2023-04-18T10:16:02.287Z,28.70
2023-04-18T10:18:28.716Z,16.30
2023-04-18T10:21:02.785Z,20.30
2023-04-18T10:23:33.946Z,15.60
2023-04-18T10:26:04.133Z,12.10
2023-04-18T10:28:52.303Z,12.00
2023-04-18T10:31:20.714Z,16.90
2023-04-18T10:34:03.216Z,14.70
2023-04-18T10:36:31.761Z,13.00
2023-04-18T10:39:21.328Z,12.60
2023-04-18T10:41:50.715Z,13.20
2023-04-18T10:44:21.111Z,17.20
2023-04-18T10:46:47.864Z,13.80
2023-04-18T10:49:27.950Z,14.50
2023-04-18T10:51:57.945Z,35.90
2023-04-18T10:54:32.668Z,39.30
2023-04-18T10:57:03.957Z,45.00
2023-04-18T10:59:32.291Z,30.50
2023-04-18T11:02:22.484Z,46.10
2023-04-18T11:04:53.686Z,16.30
2023-04-18T11:07:44.332Z,15.40
2023-04-18T11:10:11.786Z,18.60
2023-04-18T11:12:40.355Z,27.60
2023-04-18T11:15:12.322Z,23.80
2023-04-18T11:17:43.593Z,23.60
2023-04-18T11:20:13.446Z,16.60
2023-04-18T11:22:43.481Z,18.40
2023-04-18T11:25:10.237Z,21.30
2023-04-18T11:27:37.091Z,24.70
2023-04-18T11:30:04.275Z,15.80
2023-04-18T11:32:33.486Z,14.30
2023-04-18T11:34:59.900Z,7.70
2023-04-18T11:37:26.349Z,10.50
2023-04-18T11:39:53.455Z,9.30
2023-04-18T11:42:20.508Z,8.40
2023-04-18T11:44:48.399Z,9.80
2023-04-18T11:47:33.243Z,7.10
2023-04-18T11:50:08.018Z,8.60
2023-04-18T11:52:36.063Z,8.40
2023-04-18T11:55:23.850Z,7.90
2023-04-18T11:57:55.405Z,6.90
2023-04-18T12:00:34.848Z,9.00
2023-04-18T12:03:07.280Z,15.80
2023-04-18T12:05:38.490Z,9.90
2023-04-18T12:08:11.075Z,8.10
2023-04-18T12:10:45.386Z,8.50
2023-04-18T12:13:11.769Z,11.20
2023-04-18T12:15:41.567Z,9.70
2023-04-18T12:18:07.883Z,10.10
2023-04-18T12:20:37.063Z,9.60
2023-04-18T12:25:30.941Z,12.70
2023-04-18T12:27:59.797Z,8.40
2023-04-18T12:30:31.089Z,8.90
2023-04-18T12:33:00.620Z,12.30
2023-04-18T12:35:28.242Z,27.50
2023-04-18T12:37:56.407Z,32.70
2023-04-18T12:40:23.396Z,23.40
2023-04-18T12:42:51.044Z,22.30
2023-04-18T12:45:19.849Z,16.00
2023-04-18T12:47:47.779Z,10.60
2023-04-18T12:50:19.557Z,22.60
2023-04-18T12:52:46.188Z,17.80
2023-04-18T12:55:13.405Z,20.20
2023-04-18T12:57:41.649Z,20.70
2023-04-18T13:00:10.518Z,19.40
2023-04-18T13:02:38.319Z,30.60
2023-04-18T13:05:06.249Z,13.50
2023-04-18T13:07:33.015Z,11.20
2023-04-18T13:09:59.378Z,18.20
2023-04-18T13:12:25.949Z,14.10
2023-04-18T13:14:52.437Z,13.30
2023-04-18T13:17:18.699Z,17.60
2023-04-18T13:19:45.449Z,15.50
2023-04-18T13:22:11.711Z,10.80
2023-04-18T13:24:38.041Z,10.50
2023-04-18T13:27:09.680Z,9.80
2023-04-18T13:29:40.453Z,11.50
2023-04-18T13:32:07.652Z,13.70
2023-04-18T13:34:39.079Z,15.20
2023-04-18T13:37:05.752Z,8.70
2023-04-18T13:39:32.990Z,10.00
2023-04-18T13:41:59.321Z,9.20
2023-04-18T13:44:26.118Z,8.50
2023-04-18T13:46:53.899Z,6.10
2023-04-18T13:49:20.493Z,7.60
2023-04-18T13:51:46.891Z,10.20
2023-04-18T13:54:14.865Z,6.80
2023-04-18T13:56:42.053Z,7.80
2023-04-18T13:59:08.341Z,8.50
2023-04-18T14:01:34.798Z,6.80
2023-04-18T14:04:02.439Z,8.50
2023-04-18T14:06:28.964Z,7.40
2023-04-18T14:08:55.224Z,5.10
2023-04-18T14:11:22.427Z,6.40
2023-04-18T14:13:50.145Z,7.80
2023-04-18T14:16:18.272Z,7.60
2023-04-18T14:18:45.632Z,8.80
2023-04-18T14:21:12.472Z,8.00
2023-04-18T14:23:38.717Z,7.60
2023-04-18T14:26:04.958Z,8.00
2023-04-18T14:28:31.500Z,6.20
2023-04-18T14:31:01.263Z,8.00
2023-04-18T14:33:28.550Z,5.30
2023-04-18T14:35:55.239Z,6.60
2023-04-18T14:38:21.478Z,6.40
2023-04-18T14:40:47.824Z,9.00
2023-04-18T14:43:14.051Z,6.20
2023-04-18T14:45:41.410Z,9.20
2023-04-18T14:48:10.027Z,6.10
2023-04-18T14:50:37.854Z,5.90
2023-04-18T14:53:04.891Z,7.60
2023-04-18T14:55:32.688Z,7.00
2023-04-18T14:57:59.467Z,6.60
2023-04-18T15:00:26.267Z,6.00
2023-04-18T15:02:53.264Z,7.40
2023-04-18T15:05:22.958Z,6.80
2023-04-18T15:07:52.284Z,6.20
2023-04-18T15:10:21.612Z,8.00
2023-04-18T15:15:14.516Z,6.70
2023-04-18T15:17:40.911Z,5.60
2023-04-18T15:20:07.769Z,6.10
2023-04-18T15:22:35.242Z,4.80
2023-04-18T15:25:03.611Z,8.70
2023-04-18T15:27:29.887Z,6.80
2023-04-18T15:29:58.184Z,5.30
2023-04-18T15:32:26.091Z,5.20
2023-04-18T15:34:52.556Z,4.60
2023-04-18T15:37:18.954Z,7.10
2023-04-18T15:39:45.345Z,5.60
2023-04-18T15:42:11.566Z,5.80
2023-04-18T15:44:37.898Z,4.60
2023-04-18T15:47:04.191Z,16.20
2023-04-18T15:49:30.545Z,8.00
2023-04-18T15:51:56.952Z,8.20
2023-04-18T15:54:23.285Z,6.10
2023-04-18T15:56:50.926Z,4.40
2023-04-18T15:59:17.295Z,3.90
2023-04-18T16:01:45.873Z,7.60
2023-04-18T16:04:12.835Z,4.70
2023-04-18T16:06:39.970Z,6.40
2023-04-18T16:09:06.247Z,5.10
2023-04-18T16:11:32.495Z,4.70
2023-04-18T16:13:58.746Z,5.10
2023-04-18T16:16:25.849Z,5.10
2023-04-18T16:18:52.132Z,3.50
2023-04-18T16:21:19.903Z,7.30
2023-04-18T16:23:47.983Z,5.20
2023-04-18T16:26:14.361Z,5.00
2023-04-18T16:28:41.344Z,5.10
2023-04-18T16:31:07.745Z,4.10
2023-04-18T16:33:35.202Z,5.50
2023-04-18T16:36:02.383Z,4.10
2023-04-18T16:38:28.734Z,3.90
2023-04-18T16:40:56.717Z,4.60
2023-04-18T16:43:30.208Z,6.00
2023-04-18T16:45:57.294Z,5.20
2023-04-18T16:48:23.911Z,4.10
2023-04-18T16:50:51.155Z,5.10
2023-04-18T16:53:17.573Z,5.30
2023-04-18T16:55:43.867Z,4.50
2023-04-18T16:58:10.453Z,4.10
2023-04-18T17:00:38.359Z,4.40
2023-04-18T17:03:09.354Z,7.20
2023-04-18T17:05:38.609Z,5.50
2023-04-18T17:08:06.076Z,5.10
2023-04-18T17:10:33.161Z,6.30
2023-04-18T17:13:01.448Z,4.00
2023-04-18T17:15:27.846Z,4.10
2023-04-18T17:17:55.875Z,5.70
2023-04-18T17:20:22.945Z,5.70
2023-04-18T17:22:49.246Z,4.90
2023-04-18T17:25:15.964Z,4.60
2023-04-18T17:27:42.616Z,5.60
2023-04-18T17:30:09.509Z,4.50
2023-04-18T17:32:36.280Z,4.20
2023-04-18T17:35:05.553Z,5.10
2023-04-18T17:39:59.727Z,5.50
2023-04-18T17:42:26.259Z,4.60
2023-04-18T17:44:52.607Z,9.20
2023-04-18T17:47:18.839Z,4.80
2023-04-18T17:49:45.653Z,6.50
2023-04-18T17:52:11.977Z,7.10
2023-04-18T17:54:38.219Z,7.80
2023-04-18T17:57:04.784Z,6.10
2023-04-18T17:59:36.749Z,6.00
2023-04-18T18:02:04.196Z,9.10
2023-04-18T18:04:31.134Z,7.60
2023-04-18T18:06:58.308Z,7.30
2023-04-18T18:09:24.769Z,8.20
2023-04-18T18:11:52.451Z,4.30
2023-04-18T18:14:20.631Z,8.10
2023-04-18T18:16:46.994Z,8.00
2023-04-18T18:19:14.696Z,5.20
2023-04-18T18:21:41.547Z,5.80
2023-04-18T18:24:08.475Z,8.20
2023-04-18T18:26:35.520Z,7.10
2023-04-18T18:29:08.470Z,7.10
2023-04-18T18:31:35.720Z,8.10
2023-04-18T18:34:02.759Z,12.90
2023-04-18T18:36:29.267Z,8.60
2023-04-18T18:38:57.421Z,8.20
2023-04-18T18:41:24.237Z,8.00
2023-04-18T18:43:51.073Z,7.30
2023-04-18T18:46:18.197Z,7.10
2023-04-18T18:48:44.642Z,7.20
2023-04-18T18:51:11.329Z,8.00
2023-04-18T18:53:40.218Z,8.00
2023-04-18T18:56:08.083Z,7.30
2023-04-18T18:58:35.261Z,8.70
2023-04-18T19:01:02.609Z,7.10
2023-04-18T19:03:29.803Z,7.00
2023-04-18T19:05:56.472Z,5.90
2023-04-18T19:08:22.766Z,6.00
2023-04-18T19:10:49.871Z,6.60
2023-04-18T19:13:16.271Z,6.90
2023-04-18T19:15:42.675Z,9.40
2023-04-18T19:18:09.158Z,6.30
2023-04-18T19:20:38.032Z,7.40
2023-04-18T19:23:04.299Z,7.50
2023-04-18T19:25:30.713Z,6.70
2023-04-18T19:27:57.050Z,7.20
2023-04-18T19:30:24.384Z,7.40
2023-04-18T19:32:51.158Z,7.60
2023-04-18T19:35:20.188Z,8.30
2023-04-18T19:37:47.313Z,8.90
2023-04-18T19:40:18.455Z,5.70
2023-04-18T19:42:45.439Z,9.80
2023-04-18T19:45:12.949Z,6.40
2023-04-18T19:47:39.362Z,5.70
2023-04-18T19:50:06.852Z,5.70
2023-04-18T19:52:33.243Z,6.60
2023-04-18T19:55:01.875Z,6.10
2023-04-18T19:57:29.066Z,5.80
2023-04-18T19:59:55.868Z,5.10
2023-04-18T20:02:22.195Z,6.90
2023-04-18T20:04:48.821Z,5.40
2023-04-18T20:07:15.797Z,4.20
2023-04-18T20:09:42.110Z,6.10
2023-04-18T20:12:08.480Z,7.30
2023-04-18T20:14:34.958Z,7.10
2023-04-18T20:17:01.505Z,7.10
2023-04-18T20:19:28.907Z,6.80
2023-04-18T20:21:55.395Z,7.00
2023-04-18T20:24:23.036Z,5.60
2023-04-18T20:26:50.671Z,6.40
2023-04-18T20:29:17.053Z,6.40
2023-04-18T20:44:48.544Z,4.70
2023-04-18T20:47:15.936Z,6.70
2023-04-18T20:49:42.363Z,5.70
2023-04-18T20:52:13.722Z,4.00
2023-04-18T20:54:41.007Z,5.50
2023-04-18T20:57:07.555Z,5.70
2023-04-18T20:59:34.120Z,5.90
2023-04-18T21:02:01.050Z,5.20
2023-04-18T21:04:28.740Z,6.60
2023-04-18T21:06:55.542Z,5.90
2023-04-18T21:09:22.467Z,6.90
2023-04-18T21:11:49.158Z,4.10
2023-04-18T21:14:16.559Z,4.50
2023-04-18T21:16:43.221Z,4.80
2023-04-18T21:19:10.904Z,6.80
2023-04-18T21:21:37.163Z,6.70
2023-04-18T21:24:05.049Z,7.20
2023-04-18T21:26:31.285Z,6.40
2023-04-18T21:29:03.923Z,5.80
2023-04-18T21:31:32.575Z,7.30
2023-04-18T21:34:00.934Z,5.30
2023-04-18T21:36:28.303Z,6.80
2023-04-18T21:38:57.626Z,5.90
2023-04-18T21:41:24.552Z,5.20
2023-04-18T21:43:51.236Z,5.60
2023-04-18T21:46:18.429Z,6.50
2023-04-18T21:48:46.926Z,6.40
2023-04-18T21:51:15.506Z,6.70
2023-04-18T21:53:42.344Z,5.40
2023-04-18T21:56:09.159Z,7.10
2023-04-18T21:58:35.498Z,6.70
2023-04-18T22:01:02.432Z,6.20
2023-04-18T22:03:29.354Z,5.80
2023-04-18T22:05:56.036Z,6.10
2023-04-18T22:08:24.996Z,6.00
2023-04-18T22:10:54.359Z,6.80
2023-04-18T22:15:49.247Z,5.70
2023-04-18T22:18:15.573Z,7.30
2023-04-18T22:20:42.488Z,6.70
2023-04-18T22:23:08.989Z,5.90
2023-04-18T22:25:35.642Z,7.20
2023-04-18T22:28:03.017Z,7.90
2023-04-18T22:30:30.362Z,6.90
2023-04-18T22:32:58.359Z,8.00
2023-04-18T22:35:26.149Z,7.40
2023-04-18T22:37:52.391Z,5.50
2023-04-18T22:40:18.841Z,5.40
2023-04-18T22:42:45.202Z,6.80
2023-04-18T22:45:12.737Z,6.80
2023-04-18T22:47:39.116Z,5.20
2023-04-18T22:50:06.382Z,5.30
2023-04-18T22:52:33.361Z,5.90
2023-04-18T22:55:01.564Z,4.60
2023-04-18T22:57:28.014Z,4.30
2023-04-18T22:59:54.351Z,5.20
2023-04-18T23:02:20.737Z,5.70
2023-04-18T23:04:47.342Z,4.50
2023-04-18T23:07:13.727Z,6.70
2023-04-18T23:09:40.272Z,5.70
2023-04-18T23:12:06.632Z,8.30
2023-04-18T23:14:34.148Z,6.40
2023-04-18T23:17:00.669Z,6.40
2023-04-18T23:19:26.922Z,6.30
2023-04-18T23:21:53.519Z,6.30
2023-04-18T23:24:19.735Z,7.00
2023-04-18T23:26:45.963Z,5.60
2023-04-18T23:29:12.218Z,5.10
2023-04-18T23:31:38.490Z,4.90
2023-04-18T23:34:04.769Z,5.80
2023-04-18T23:36:31.614Z,5.00
2023-04-18T23:38:58.258Z,4.50
2023-04-18T23:41:24.754Z,4.50
2023-04-18T23:43:51.100Z,6.10
2023-04-18T23:46:17.488Z,5.50
2023-04-18T23:48:43.871Z,7.30
2023-04-18T23:51:10.475Z,5.40
2023-04-18T23:53:36.710Z,5.20
2023-04-18T23:56:03.091Z,6.60
2023-04-18T23:58:30.968Z,5.90
